sensor_id;sensor_type;location;lat;lon;timestamp;P1;durP1;ratioP1;P2;durP2;ratioP2
53391;SDS011;41667;51.922;8.850;2023-03-01T00:01:44;11.98;;;7.68;;
53391;SDS011;41667;51.922;8.850;2023-03-01T00:04:10;10.27;;;7.07;;
53391;SDS011;41667;51.922;8.850;2023-03-01T00:06:35;11.80;;;7.63;;
53391;SDS011;41667;51.922;8.850;2023-03-01T00:09:00;12.27;;;8.05;;
53391;SDS011;41667;51.922;8.850;2023-03-01T00:11:26;12.87;;;9.27;;
53391;SDS011;41667;51.922;8.850;2023-03-01T00:13:53;11.43;;;7.53;;
53391;SDS011;41667;51.922;8.850;2023-03-01T00:16:20;10.68;;;6.68;;
53391;SDS011;41667;51.922;8.850;2023-03-01T00:18:45;9.82;;;6.88;;
53391;SDS011;41667;51.922;8.850;2023-03-01T00:21:11;10.25;;;7.78;;
53391;SDS011;41667;51.922;8.850;2023-03-01T00:23:36;11.30;;;6.80;;
53391;SDS011;41667;51.922;8.850;2023-03-01T00:26:02;9.35;;;6.80;;
53391;SDS011;41667;51.922;8.850;2023-03-01T00:28:27;9.68;;;6.57;;
53391;SDS011;41667;51.922;8.850;2023-03-01T00:30:52;15.13;;;6.85;;
53391;SDS011;41667;51.922;8.850;2023-03-01T00:33:17;13.32;;;6.50;;
53391;SDS011;41667;51.922;8.850;2023-03-01T00:35:42;11.70;;;6.73;;
53391;SDS011;41667;51.922;8.850;2023-03-01T00:38:08;9.37;;;5.60;;
53391;SDS011;41667;51.922;8.850;2023-03-01T00:40:33;9.65;;;6.95;;
53391;SDS011;41667;51.922;8.850;2023-03-01T00:42:59;12.57;;;6.55;;
53391;SDS011;41667;51.922;8.850;2023-03-01T00:45:24;12.93;;;7.30;;
53391;SDS011;41667;51.922;8.850;2023-03-01T00:47:49;6.53;;;5.25;;
53391;SDS011;41667;51.922;8.850;2023-03-01T00:50:15;8.98;;;6.25;;
53391;SDS011;41667;51.922;8.850;2023-03-01T00:52:40;9.18;;;5.97;;
53391;SDS011;41667;51.922;8.850;2023-03-01T00:55:05;9.15;;;6.03;;
53391;SDS011;41667;51.922;8.850;2023-03-01T00:57:30;10.38;;;6.45;;
53391;SDS011;41667;51.922;8.850;2023-03-01T00:59:56;8.40;;;5.57;;
53391;SDS011;41667;51.922;8.850;2023-03-01T01:02:21;9.73;;;5.03;;
53391;SDS011;41667;51.922;8.850;2023-03-01T01:04:46;10.10;;;6.35;;
53391;SDS011;41667;51.922;8.850;2023-03-01T01:07:12;15.90;;;6.23;;
53391;SDS011;41667;51.922;8.850;2023-03-01T01:09:37;10.93;;;5.47;;
53391;SDS011;41667;51.922;8.850;2023-03-01T01:12:02;9.73;;;5.45;;
53391;SDS011;41667;51.922;8.850;2023-03-01T01:14:28;13.48;;;6.55;;
53391;SDS011;41667;51.922;8.850;2023-03-01T01:16:53;9.63;;;5.78;;
53391;SDS011;41667;51.922;8.850;2023-03-01T01:19:19;7.78;;;5.10;;
53391;SDS011;41667;51.922;8.850;2023-03-01T01:21:44;8.40;;;5.22;;
53391;SDS011;41667;51.922;8.850;2023-03-01T01:24:09;7.30;;;5.30;;
53391;SDS011;41667;51.922;8.850;2023-03-01T01:26:35;10.30;;;6.72;;
53391;SDS011;41667;51.922;8.850;2023-03-01T01:29:00;7.55;;;5.50;;
53391;SDS011;41667;51.922;8.850;2023-03-01T01:31:26;6.97;;;5.32;;
53391;SDS011;41667;51.922;8.850;2023-03-01T01:33:52;8.65;;;6.35;;
53391;SDS011;41667;51.922;8.850;2023-03-01T01:36:17;9.23;;;6.10;;
53391;SDS011;41667;51.922;8.850;2023-03-01T01:38:42;10.23;;;6.00;;
53391;SDS011;41667;51.922;8.850;2023-03-01T01:41:08;8.30;;;5.83;;
53391;SDS011;41667;51.922;8.850;2023-03-01T01:43:44;7.00;;;5.25;;
53391;SDS011;41667;51.922;8.850;2023-03-01T01:46:19;10.57;;;5.13;;
53391;SDS011;41667;51.922;8.850;2023-03-01T01:48:48;9.70;;;5.32;;
53391;SDS011;41667;51.922;8.850;2023-03-01T01:51:16;8.32;;;5.70;;
53391;SDS011;41667;51.922;8.850;2023-03-01T01:53:43;10.55;;;6.03;;
53391;SDS011;41667;51.922;8.850;2023-03-01T01:56:09;11.40;;;6.45;;
53391;SDS011;41667;51.922;8.850;2023-03-01T01:58:36;5.28;;;4.57;;
53391;SDS011;41667;51.922;8.850;2023-03-01T02:01:01;10.50;;;6.13;;
53391;SDS011;41667;51.922;8.850;2023-03-01T02:03:29;8.93;;;5.18;;
53391;SDS011;41667;51.922;8.850;2023-03-01T02:06:12;9.00;;;5.70;;
53391;SDS011;41667;51.922;8.850;2023-03-01T02:08:38;10.20;;;5.88;;
53391;SDS011;41667;51.922;8.850;2023-03-01T02:11:03;7.30;;;4.90;;
53391;SDS011;41667;51.922;8.850;2023-03-01T02:13:29;4.90;;;3.92;;
53391;SDS011;41667;51.922;8.850;2023-03-01T02:15:54;8.80;;;5.60;;
53391;SDS011;41667;51.922;8.850;2023-03-01T02:18:20;7.00;;;4.22;;
53391;SDS011;41667;51.922;8.850;2023-03-01T02:23:29;7.45;;;4.95;;
53391;SDS011;41667;51.922;8.850;2023-03-01T02:26:00;7.85;;;4.88;;
53391;SDS011;41667;51.922;8.850;2023-03-01T02:28:36;11.75;;;5.00;;
53391;SDS011;41667;51.922;8.850;2023-03-01T02:31:02;8.00;;;4.43;;
53391;SDS011;41667;51.922;8.850;2023-03-01T02:33:47;7.35;;;4.85;;
53391;SDS011;41667;51.922;8.850;2023-03-01T02:36:15;6.63;;;5.75;;
53391;SDS011;41667;51.922;8.850;2023-03-01T02:38:41;6.55;;;4.82;;
53391;SDS011;41667;51.922;8.850;2023-03-01T02:41:07;9.48;;;5.60;;
53391;SDS011;41667;51.922;8.850;2023-03-01T02:43:33;8.50;;;5.40;;
53391;SDS011;41667;51.922;8.850;2023-03-01T02:46:03;7.60;;;5.30;;
53391;SDS011;41667;51.922;8.850;2023-03-01T02:48:37;7.43;;;4.68;;
53391;SDS011;41667;51.922;8.850;2023-03-01T02:51:10;7.53;;;4.15;;
53391;SDS011;41667;51.922;8.850;2023-03-01T02:56:37;5.57;;;4.72;;
53391;SDS011;41667;51.922;8.850;2023-03-01T02:59:02;7.90;;;4.57;;
53391;SDS011;41667;51.922;8.850;2023-03-01T03:01:28;9.82;;;5.88;;
53391;SDS011;41667;51.922;8.850;2023-03-01T03:04:10;6.00;;;4.50;;
53391;SDS011;41667;51.922;8.850;2023-03-01T03:06:36;7.70;;;5.03;;
53391;SDS011;41667;51.922;8.850;2023-03-01T03:09:02;4.78;;;4.30;;
53391;SDS011;41667;51.922;8.850;2023-03-01T03:11:27;5.25;;;4.20;;
53391;SDS011;41667;51.922;8.850;2023-03-01T03:13:52;6.88;;;5.30;;
53391;SDS011;41667;51.922;8.850;2023-03-01T03:16:18;7.05;;;4.68;;
53391;SDS011;41667;51.922;8.850;2023-03-01T03:18:43;12.45;;;5.15;;
53391;SDS011;41667;51.922;8.850;2023-03-01T03:21:09;8.25;;;4.60;;
53391;SDS011;41667;51.922;8.850;2023-03-01T03:23:35;8.48;;;5.63;;
53391;SDS011;41667;51.922;8.850;2023-03-01T03:26:01;6.63;;;4.20;;
53391;SDS011;41667;51.922;8.850;2023-03-01T03:28:28;7.82;;;4.25;;
53391;SDS011;41667;51.922;8.850;2023-03-01T03:30:55;9.32;;;5.00;;
53391;SDS011;41667;51.922;8.850;2023-03-01T03:33:20;6.70;;;4.25;;
53391;SDS011;41667;51.922;8.850;2023-03-01T03:35:47;11.37;;;3.63;;
53391;SDS011;41667;51.922;8.850;2023-03-01T03:38:13;4.95;;;4.30;;
53391;SDS011;41667;51.922;8.850;2023-03-01T03:40:47;12.48;;;4.57;;
53391;SDS011;41667;51.922;8.850;2023-03-01T03:43:14;6.80;;;4.50;;
53391;SDS011;41667;51.922;8.850;2023-03-01T03:45:39;5.32;;;3.97;;
53391;SDS011;41667;51.922;8.850;2023-03-01T03:48:05;5.10;;;4.22;;
53391;SDS011;41667;51.922;8.850;2023-03-01T03:50:31;7.57;;;5.18;;
53391;SDS011;41667;51.922;8.850;2023-03-01T03:52:56;6.13;;;4.05;;
53391;SDS011;41667;51.922;8.850;2023-03-01T03:55:21;5.18;;;4.65;;
53391;SDS011;41667;51.922;8.850;2023-03-01T03:57:47;6.57;;;4.80;;
53391;SDS011;41667;51.922;8.850;2023-03-01T04:00:16;5.57;;;4.50;;
53391;SDS011;41667;51.922;8.850;2023-03-01T04:02:42;6.45;;;4.28;;
53391;SDS011;41667;51.922;8.850;2023-03-01T04:05:08;4.78;;;3.95;;
53391;SDS011;41667;51.922;8.850;2023-03-01T04:07:34;6.90;;;4.50;;
53391;SDS011;41667;51.922;8.850;2023-03-01T04:09:59;6.72;;;4.20;;
53391;SDS011;41667;51.922;8.850;2023-03-01T04:12:24;8.07;;;4.47;;
53391;SDS011;41667;51.922;8.850;2023-03-01T04:14:50;6.13;;;4.45;;
53391;SDS011;41667;51.922;8.850;2023-03-01T04:17:15;5.88;;;4.47;;
53391;SDS011;41667;51.922;8.850;2023-03-01T04:19:40;8.53;;;4.80;;
53391;SDS011;41667;51.922;8.850;2023-03-01T04:22:08;6.35;;;4.07;;
53391;SDS011;41667;51.922;8.850;2023-03-01T04:24:36;5.30;;;4.00;;
53391;SDS011;41667;51.922;8.850;2023-03-01T04:27:01;6.43;;;4.32;;
53391;SDS011;41667;51.922;8.850;2023-03-01T04:29:26;6.70;;;4.18;;
53391;SDS011;41667;51.922;8.850;2023-03-01T04:31:51;7.10;;;4.78;;
53391;SDS011;41667;51.922;8.850;2023-03-01T04:34:16;6.90;;;5.38;;
53391;SDS011;41667;51.922;8.850;2023-03-01T04:36:42;5.33;;;4.67;;
53391;SDS011;41667;51.922;8.850;2023-03-01T04:39:07;6.70;;;4.40;;
53391;SDS011;41667;51.922;8.850;2023-03-01T04:41:37;6.53;;;4.05;;
53391;SDS011;41667;51.922;8.850;2023-03-01T04:44:03;8.15;;;4.53;;
53391;SDS011;41667;51.922;8.850;2023-03-01T04:46:29;4.25;;;3.58;;
53391;SDS011;41667;51.922;8.850;2023-03-01T04:48:54;8.40;;;4.68;;
53391;SDS011;41667;51.922;8.850;2023-03-01T04:51:19;10.05;;;4.65;;
53391;SDS011;41667;51.922;8.850;2023-03-01T04:53:45;5.68;;;4.10;;
53391;SDS011;41667;51.922;8.850;2023-03-01T04:56:10;11.48;;;4.30;;
53391;SDS011;41667;51.922;8.850;2023-03-01T04:58:35;8.60;;;4.85;;
53391;SDS011;41667;51.922;8.850;2023-03-01T05:01:00;5.93;;;3.93;;
53391;SDS011;41667;51.922;8.850;2023-03-01T05:03:25;6.93;;;5.07;;
53391;SDS011;41667;51.922;8.850;2023-03-01T05:05:51;7.25;;;4.72;;
53391;SDS011;41667;51.922;8.850;2023-03-01T05:08:17;6.22;;;4.90;;
53391;SDS011;41667;51.922;8.850;2023-03-01T05:10:43;7.38;;;5.10;;
53391;SDS011;41667;51.922;8.850;2023-03-01T05:13:08;6.53;;;3.97;;
53391;SDS011;41667;51.922;8.850;2023-03-01T05:15:33;6.32;;;4.57;;
53391;SDS011;41667;51.922;8.850;2023-03-01T05:17:59;5.40;;;4.17;;
53391;SDS011;41667;51.922;8.850;2023-03-01T05:20:24;9.18;;;5.15;;
53391;SDS011;41667;51.922;8.850;2023-03-01T05:22:50;5.80;;;3.80;;
53391;SDS011;41667;51.922;8.850;2023-03-01T05:25:15;7.40;;;4.60;;
53391;SDS011;41667;51.922;8.850;2023-03-01T05:27:41;8.35;;;4.60;;
53391;SDS011;41667;51.922;8.850;2023-03-01T05:30:07;6.97;;;4.70;;
53391;SDS011;41667;51.922;8.850;2023-03-01T05:32:40;4.50;;;4.10;;
53391;SDS011;41667;51.922;8.850;2023-03-01T05:35:06;7.40;;;4.38;;
53391;SDS011;41667;51.922;8.850;2023-03-01T05:37:31;5.38;;;4.75;;
53391;SDS011;41667;51.922;8.850;2023-03-01T05:39:56;5.85;;;3.78;;
53391;SDS011;41667;51.922;8.850;2023-03-01T05:42:21;11.35;;;5.47;;
53391;SDS011;41667;51.922;8.850;2023-03-01T05:44:46;7.03;;;4.32;;
53391;SDS011;41667;51.922;8.850;2023-03-01T05:47:11;5.00;;;4.30;;
53391;SDS011;41667;51.922;8.850;2023-03-01T05:49:36;9.25;;;5.20;;
53391;SDS011;41667;51.922;8.850;2023-03-01T05:52:01;7.38;;;5.45;;
53391;SDS011;41667;51.922;8.850;2023-03-01T05:54:27;9.13;;;6.13;;
53391;SDS011;41667;51.922;8.850;2023-03-01T05:56:52;5.60;;;4.07;;
53391;SDS011;41667;51.922;8.850;2023-03-01T05:59:17;7.07;;;4.28;;
53391;SDS011;41667;51.922;8.850;2023-03-01T06:01:42;6.30;;;4.72;;
53391;SDS011;41667;51.922;8.850;2023-03-01T06:04:08;10.05;;;6.10;;
53391;SDS011;41667;51.922;8.850;2023-03-01T06:06:34;6.82;;;4.82;;
53391;SDS011;41667;51.922;8.850;2023-03-01T06:08:59;7.15;;;5.28;;
53391;SDS011;41667;51.922;8.850;2023-03-01T06:11:24;7.35;;;4.72;;
53391;SDS011;41667;51.922;8.850;2023-03-01T06:13:50;4.80;;;4.33;;
53391;SDS011;41667;51.922;8.850;2023-03-01T06:16:15;6.90;;;4.90;;
53391;SDS011;41667;51.922;8.850;2023-03-01T06:18:40;10.18;;;5.68;;
53391;SDS011;41667;51.922;8.850;2023-03-01T06:21:06;6.15;;;4.90;;
53391;SDS011;41667;51.922;8.850;2023-03-01T06:23:31;10.50;;;5.50;;
53391;SDS011;41667;51.922;8.850;2023-03-01T06:25:57;6.18;;;5.28;;
53391;SDS011;41667;51.922;8.850;2023-03-01T06:28:22;7.25;;;5.00;;
53391;SDS011;41667;51.922;8.850;2023-03-01T06:30:47;6.37;;;5.23;;
53391;SDS011;41667;51.922;8.850;2023-03-01T06:33:12;8.25;;;6.22;;
53391;SDS011;41667;51.922;8.850;2023-03-01T06:35:38;7.60;;;4.95;;
53391;SDS011;41667;51.922;8.850;2023-03-01T06:38:03;6.30;;;5.38;;
53391;SDS011;41667;51.922;8.850;2023-03-01T06:40:29;6.30;;;5.35;;
53391;SDS011;41667;51.922;8.850;2023-03-01T06:42:54;6.43;;;5.10;;
53391;SDS011;41667;51.922;8.850;2023-03-01T06:45:20;7.45;;;5.30;;
53391;SDS011;41667;51.922;8.850;2023-03-01T06:47:45;8.10;;;5.28;;
53391;SDS011;41667;51.922;8.850;2023-03-01T06:50:11;8.38;;;6.00;;
53391;SDS011;41667;51.922;8.850;2023-03-01T06:52:36;9.82;;;6.43;;
53391;SDS011;41667;51.922;8.850;2023-03-01T06:55:01;11.63;;;6.15;;
53391;SDS011;41667;51.922;8.850;2023-03-01T06:57:26;9.73;;;6.15;;
53391;SDS011;41667;51.922;8.850;2023-03-01T06:59:52;10.57;;;6.25;;
53391;SDS011;41667;51.922;8.850;2023-03-01T07:02:17;11.07;;;6.22;;
53391;SDS011;41667;51.922;8.850;2023-03-01T07:04:42;12.43;;;8.00;;
53391;SDS011;41667;51.922;8.850;2023-03-01T07:07:07;8.50;;;6.95;;
53391;SDS011;41667;51.922;8.850;2023-03-01T07:09:33;10.05;;;6.22;;
53391;SDS011;41667;51.922;8.850;2023-03-01T07:11:58;12.48;;;7.32;;
53391;SDS011;41667;51.922;8.850;2023-03-01T07:14:23;15.63;;;9.87;;
53391;SDS011;41667;51.922;8.850;2023-03-01T07:16:50;14.18;;;9.55;;
53391;SDS011;41667;51.922;8.850;2023-03-01T07:19:16;25.15;;;11.20;;
53391;SDS011;41667;51.922;8.850;2023-03-01T07:21:41;14.98;;;8.75;;
53391;SDS011;41667;51.922;8.850;2023-03-01T07:24:06;16.00;;;9.18;;
53391;SDS011;41667;51.922;8.850;2023-03-01T07:26:32;10.95;;;7.22;;
53391;SDS011;41667;51.922;8.850;2023-03-01T07:29:00;15.20;;;8.77;;
53391;SDS011;41667;51.922;8.850;2023-03-01T07:31:26;15.40;;;7.25;;
53391;SDS011;41667;51.922;8.850;2023-03-01T07:33:53;14.73;;;7.03;;
53391;SDS011;41667;51.922;8.850;2023-03-01T07:36:18;12.90;;;7.32;;
53391;SDS011;41667;51.922;8.850;2023-03-01T07:38:43;10.23;;;6.30;;
53391;SDS011;41667;51.922;8.850;2023-03-01T07:41:08;11.52;;;7.70;;
53391;SDS011;41667;51.922;8.850;2023-03-01T07:43:33;16.23;;;7.43;;
53391;SDS011;41667;51.922;8.850;2023-03-01T07:45:59;9.57;;;7.13;;
53391;SDS011;41667;51.922;8.850;2023-03-01T07:48:25;12.82;;;6.07;;
53391;SDS011;41667;51.922;8.850;2023-03-01T07:50:50;14.80;;;7.82;;
53391;SDS011;41667;51.922;8.850;2023-03-01T07:53:15;14.17;;;7.37;;
53391;SDS011;41667;51.922;8.850;2023-03-01T07:55:40;9.35;;;6.95;;
53391;SDS011;41667;51.922;8.850;2023-03-01T07:58:05;13.18;;;7.10;;
53391;SDS011;41667;51.922;8.850;2023-03-01T08:00:31;10.10;;;6.57;;
53391;SDS011;41667;51.922;8.850;2023-03-01T08:02:58;11.33;;;7.17;;
53391;SDS011;41667;51.922;8.850;2023-03-01T08:05:23;12.95;;;5.72;;
53391;SDS011;41667;51.922;8.850;2023-03-01T08:07:48;13.97;;;7.57;;
53391;SDS011;41667;51.922;8.850;2023-03-01T08:10:13;13.07;;;7.50;;
53391;SDS011;41667;51.922;8.850;2023-03-01T08:12:39;16.10;;;7.93;;
53391;SDS011;41667;51.922;8.850;2023-03-01T08:15:04;20.10;;;8.10;;
53391;SDS011;41667;51.922;8.850;2023-03-01T08:17:29;11.70;;;7.82;;
53391;SDS011;41667;51.922;8.850;2023-03-01T08:19:54;13.68;;;7.63;;
53391;SDS011;41667;51.922;8.850;2023-03-01T08:22:19;14.10;;;8.23;;
53391;SDS011;41667;51.922;8.850;2023-03-01T08:24:44;11.13;;;6.72;;
53391;SDS011;41667;51.922;8.850;2023-03-01T08:27:10;10.98;;;6.50;;
53391;SDS011;41667;51.922;8.850;2023-03-01T08:29:37;12.35;;;6.53;;
53391;SDS011;41667;51.922;8.850;2023-03-01T08:32:02;10.60;;;6.82;;
53391;SDS011;41667;51.922;8.850;2023-03-01T08:34:27;14.45;;;7.03;;
53391;SDS011;41667;51.922;8.850;2023-03-01T08:36:52;8.83;;;5.90;;
53391;SDS011;41667;51.922;8.850;2023-03-01T08:39:18;8.48;;;5.95;;
53391;SDS011;41667;51.922;8.850;2023-03-01T08:41:44;10.07;;;7.22;;
53391;SDS011;41667;51.922;8.850;2023-03-01T08:44:10;8.23;;;6.95;;
53391;SDS011;41667;51.922;8.850;2023-03-01T08:46:37;13.30;;;7.75;;
53391;SDS011;41667;51.922;8.850;2023-03-01T08:49:13;10.82;;;7.57;;
53391;SDS011;41667;51.922;8.850;2023-03-01T08:51:38;16.45;;;7.38;;
53391;SDS011;41667;51.922;8.850;2023-03-01T08:54:04;12.90;;;6.47;;
53391;SDS011;41667;51.922;8.850;2023-03-01T08:56:29;15.38;;;6.68;;
53391;SDS011;41667;51.922;8.850;2023-03-01T08:58:54;10.27;;;6.60;;
53391;SDS011;41667;51.922;8.850;2023-03-01T09:01:20;11.45;;;6.95;;
53391;SDS011;41667;51.922;8.850;2023-03-01T09:03:45;8.82;;;6.47;;
53391;SDS011;41667;51.922;8.850;2023-03-01T09:06:10;10.00;;;5.35;;
53391;SDS011;41667;51.922;8.850;2023-03-01T09:08:36;15.18;;;7.40;;
53391;SDS011;41667;51.922;8.850;2023-03-01T09:11:02;11.85;;;6.18;;
53391;SDS011;41667;51.922;8.850;2023-03-01T09:13:28;9.95;;;4.63;;
53391;SDS011;41667;51.922;8.850;2023-03-01T09:15:55;10.10;;;6.05;;
53391;SDS011;41667;51.922;8.850;2023-03-01T09:18:21;10.73;;;6.20;;
53391;SDS011;41667;51.922;8.850;2023-03-01T09:20:46;9.75;;;5.50;;
53391;SDS011;41667;51.922;8.850;2023-03-01T09:23:11;12.83;;;6.33;;
53391;SDS011;41667;51.922;8.850;2023-03-01T09:25:36;8.43;;;5.67;;
53391;SDS011;41667;51.922;8.850;2023-03-01T09:28:01;5.70;;;4.10;;
53391;SDS011;41667;51.922;8.850;2023-03-01T09:30:26;8.38;;;5.57;;
53391;SDS011;41667;51.922;8.850;2023-03-01T09:32:52;7.07;;;4.43;;
53391;SDS011;41667;51.922;8.850;2023-03-01T09:35:17;7.43;;;4.13;;
53391;SDS011;41667;51.922;8.850;2023-03-01T09:37:42;9.20;;;4.80;;
53391;SDS011;41667;51.922;8.850;2023-03-01T09:40:12;14.05;;;5.70;;
53391;SDS011;41667;51.922;8.850;2023-03-01T09:42:45;10.30;;;5.03;;
53391;SDS011;41667;51.922;8.850;2023-03-01T09:45:11;6.68;;;4.40;;
53391;SDS011;41667;51.922;8.850;2023-03-01T09:47:39;10.93;;;4.82;;
53391;SDS011;41667;51.922;8.850;2023-03-01T09:50:09;6.75;;;4.68;;
53391;SDS011;41667;51.922;8.850;2023-03-01T09:52:38;4.22;;;3.80;;
53391;SDS011;41667;51.922;8.850;2023-03-01T09:55:07;4.47;;;3.45;;
53391;SDS011;41667;51.922;8.850;2023-03-01T10:00:07;6.43;;;4.28;;
53391;SDS011;41667;51.922;8.850;2023-03-01T10:02:46;7.25;;;4.15;;
53391;SDS011;41667;51.922;8.850;2023-03-01T10:08:12;10.02;;;4.40;;
53391;SDS011;41667;51.922;8.850;2023-03-01T10:10:39;4.93;;;3.75;;
53391;SDS011;41667;51.922;8.850;2023-03-01T10:13:10;4.60;;;3.55;;
53391;SDS011;41667;51.922;8.850;2023-03-01T10:15:40;5.88;;;3.72;;
53391;SDS011;41667;51.922;8.850;2023-03-01T10:18:10;5.38;;;3.30;;
53391;SDS011;41667;51.922;8.850;2023-03-01T10:20:46;5.45;;;3.83;;
53391;SDS011;41667;51.922;8.850;2023-03-01T10:23:13;4.60;;;3.90;;
53391;SDS011;41667;51.922;8.850;2023-03-01T10:25:47;6.20;;;3.80;;
53391;SDS011;41667;51.922;8.850;2023-03-01T10:28:29;7.50;;;3.75;;
53391;SDS011;41667;51.922;8.850;2023-03-01T10:30:56;4.85;;;4.20;;
53391;SDS011;41667;51.922;8.850;2023-03-01T10:33:28;5.13;;;3.70;;
53391;SDS011;41667;51.922;8.850;2023-03-01T10:35:54;8.05;;;4.53;;
53391;SDS011;41667;51.922;8.850;2023-03-01T10:38:19;4.53;;;3.88;;
53391;SDS011;41667;51.922;8.850;2023-03-01T10:40:52;4.43;;;3.72;;
53391;SDS011;41667;51.922;8.850;2023-03-01T10:43:18;3.42;;;3.13;;
53391;SDS011;41667;51.922;8.850;2023-03-01T10:45:43;4.75;;;3.50;;
53391;SDS011;41667;51.922;8.850;2023-03-01T10:50:38;7.70;;;3.80;;
53391;SDS011;41667;51.922;8.850;2023-03-01T10:53:05;8.63;;;4.88;;
53391;SDS011;41667;51.922;8.850;2023-03-01T10:55:31;9.37;;;4.53;;
53391;SDS011;41667;51.922;8.850;2023-03-01T10:58:18;6.82;;;3.80;;
53391;SDS011;41667;51.922;8.850;2023-03-01T11:03:16;4.05;;;3.30;;
53391;SDS011;41667;51.922;8.850;2023-03-01T11:05:50;5.53;;;3.08;;
53391;SDS011;41667;51.922;8.850;2023-03-01T11:08:25;4.82;;;3.53;;
53391;SDS011;41667;51.922;8.850;2023-03-01T11:11:03;6.15;;;3.88;;
53391;SDS011;41667;51.922;8.850;2023-03-01T11:13:29;4.28;;;3.53;;
53391;SDS011;41667;51.922;8.850;2023-03-01T11:15:58;6.03;;;3.72;;
53391;SDS011;41667;51.922;8.850;2023-03-01T11:18:23;4.57;;;3.42;;
53391;SDS011;41667;51.922;8.850;2023-03-01T11:20:50;7.70;;;4.28;;
53391;SDS011;41667;51.922;8.850;2023-03-01T11:23:16;5.25;;;3.15;;
53391;SDS011;41667;51.922;8.850;2023-03-01T11:25:43;3.75;;;3.45;;
53391;SDS011;41667;51.922;8.850;2023-03-01T11:28:16;4.95;;;3.28;;
53391;SDS011;41667;51.922;8.850;2023-03-01T11:31:00;5.80;;;3.97;;
53391;SDS011;41667;51.922;8.850;2023-03-01T11:36:04;5.78;;;4.25;;
53391;SDS011;41667;51.922;8.850;2023-03-01T11:38:30;5.28;;;3.40;;
53391;SDS011;41667;51.922;8.850;2023-03-01T11:44:11;4.25;;;3.42;;
53391;SDS011;41667;51.922;8.850;2023-03-01T11:48:51;6.37;;;3.03;;
53391;SDS011;41667;51.922;8.850;2023-03-01T11:51:38;5.30;;;3.35;;
53391;SDS011;41667;51.922;8.850;2023-03-01T11:56:55;8.15;;;3.28;;
53391;SDS011;41667;51.922;8.850;2023-03-01T12:06:56;6.50;;;3.88;;
53391;SDS011;41667;51.922;8.850;2023-03-01T12:10:12;8.50;;;4.22;;
53391;SDS011;41667;51.922;8.850;2023-03-01T12:15:05;7.28;;;3.45;;
53391;SDS011;41667;51.922;8.850;2023-03-01T12:20:05;7.07;;;2.85;;
53391;SDS011;41667;51.922;8.850;2023-03-01T12:22:36;5.50;;;4.25;;
53391;SDS011;41667;51.922;8.850;2023-03-01T12:25:14;5.75;;;3.55;;
53391;SDS011;41667;51.922;8.850;2023-03-01T12:30:15;4.35;;;3.42;;
53391;SDS011;41667;51.922;8.850;2023-03-01T12:50:38;3.60;;;3.00;;
53391;SDS011;41667;51.922;8.850;2023-03-01T12:53:05;4.05;;;3.05;;
53391;SDS011;41667;51.922;8.850;2023-03-01T12:58:19;8.05;;;3.28;;
53391;SDS011;41667;51.922;8.850;2023-03-01T13:03:23;6.35;;;3.72;;
53391;SDS011;41667;51.922;8.850;2023-03-01T13:08:51;3.72;;;2.88;;
53391;SDS011;41667;51.922;8.850;2023-03-01T13:11:22;5.35;;;2.63;;
53391;SDS011;41667;51.922;8.850;2023-03-01T13:13:47;4.25;;;3.17;;
53391;SDS011;41667;51.922;8.850;2023-03-01T13:19:06;5.65;;;3.83;;
53391;SDS011;41667;51.922;8.850;2023-03-01T13:21:32;6.80;;;3.95;;
53391;SDS011;41667;51.922;8.850;2023-03-01T13:23:57;5.43;;;3.63;;
53391;SDS011;41667;51.922;8.850;2023-03-01T13:26:22;7.43;;;3.20;;
53391;SDS011;41667;51.922;8.850;2023-03-01T13:28:48;4.40;;;3.47;;
53391;SDS011;41667;51.922;8.850;2023-03-01T13:36:08;9.02;;;3.85;;
53391;SDS011;41667;51.922;8.850;2023-03-01T13:38:36;6.72;;;3.83;;
53391;SDS011;41667;51.922;8.850;2023-03-01T13:41:02;6.10;;;4.05;;
53391;SDS011;41667;51.922;8.850;2023-03-01T13:43:31;5.18;;;3.10;;
53391;SDS011;41667;51.922;8.850;2023-03-01T13:45:57;5.93;;;4.18;;
53391;SDS011;41667;51.922;8.850;2023-03-01T13:48:27;4.13;;;3.38;;
53391;SDS011;41667;51.922;8.850;2023-03-01T13:50:54;7.63;;;3.88;;
53391;SDS011;41667;51.922;8.850;2023-03-01T13:53:22;7.50;;;4.18;;
53391;SDS011;41667;51.922;8.850;2023-03-01T13:55:48;6.15;;;4.32;;
53391;SDS011;41667;51.922;8.850;2023-03-01T13:58:15;4.10;;;3.67;;
53391;SDS011;41667;51.922;8.850;2023-03-01T14:00:41;8.07;;;3.80;;
53391;SDS011;41667;51.922;8.850;2023-03-01T14:03:11;11.02;;;4.03;;
53391;SDS011;41667;51.922;8.850;2023-03-01T14:05:37;6.28;;;3.60;;
53391;SDS011;41667;51.922;8.850;2023-03-01T14:08:17;6.63;;;3.53;;
53391;SDS011;41667;51.922;8.850;2023-03-01T14:10:53;7.15;;;4.25;;
53391;SDS011;41667;51.922;8.850;2023-03-01T14:13:29;5.00;;;3.40;;
53391;SDS011;41667;51.922;8.850;2023-03-01T14:18:39;6.22;;;3.92;;
53391;SDS011;41667;51.922;8.850;2023-03-01T14:21:08;5.80;;;3.97;;
53391;SDS011;41667;51.922;8.850;2023-03-01T14:23:34;5.20;;;3.60;;
53391;SDS011;41667;51.922;8.850;2023-03-01T14:26:00;5.78;;;4.40;;
53391;SDS011;41667;51.922;8.850;2023-03-01T14:28:27;7.00;;;3.88;;
53391;SDS011;41667;51.922;8.850;2023-03-01T14:30:53;4.65;;;3.50;;
53391;SDS011;41667;51.922;8.850;2023-03-01T14:33:26;6.53;;;4.18;;
53391;SDS011;41667;51.922;8.850;2023-03-01T14:36:02;6.10;;;4.30;;
53391;SDS011;41667;51.922;8.850;2023-03-01T14:38:37;6.75;;;3.25;;
53391;SDS011;41667;51.922;8.850;2023-03-01T14:41:07;6.75;;;3.47;;
53391;SDS011;41667;51.922;8.850;2023-03-01T14:43:33;5.85;;;4.15;;
53391;SDS011;41667;51.922;8.850;2023-03-01T14:45:58;4.65;;;3.40;;
53391;SDS011;41667;51.922;8.850;2023-03-01T14:48:24;5.97;;;2.88;;
53391;SDS011;41667;51.922;8.850;2023-03-01T14:50:49;6.82;;;3.88;;
53391;SDS011;41667;51.922;8.850;2023-03-01T14:53:16;4.07;;;3.70;;
53391;SDS011;41667;51.922;8.850;2023-03-01T14:55:44;7.05;;;4.38;;
53391;SDS011;41667;51.922;8.850;2023-03-01T14:58:14;5.10;;;3.83;;
53391;SDS011;41667;51.922;8.850;2023-03-01T15:00:39;5.35;;;3.70;;
53391;SDS011;41667;51.922;8.850;2023-03-01T15:03:11;4.72;;;3.55;;
53391;SDS011;41667;51.922;8.850;2023-03-01T15:05:38;8.75;;;3.70;;
53391;SDS011;41667;51.922;8.850;2023-03-01T15:08:04;5.88;;;3.80;;
53391;SDS011;41667;51.922;8.850;2023-03-01T15:10:30;6.65;;;3.85;;
53391;SDS011;41667;51.922;8.850;2023-03-01T15:12:56;9.20;;;3.90;;
53391;SDS011;41667;51.922;8.850;2023-03-01T15:15:35;7.10;;;4.00;;
53391;SDS011;41667;51.922;8.850;2023-03-01T15:18:22;6.68;;;3.97;;
53391;SDS011;41667;51.922;8.850;2023-03-01T15:20:49;6.97;;;3.65;;
53391;SDS011;41667;51.922;8.850;2023-03-01T15:23:24;8.90;;;4.35;;
53391;SDS011;41667;51.922;8.850;2023-03-01T15:25:50;7.75;;;4.00;;
53391;SDS011;41667;51.922;8.850;2023-03-01T15:28:21;6.10;;;3.57;;
53391;SDS011;41667;51.922;8.850;2023-03-01T15:30:51;5.60;;;3.70;;
53391;SDS011;41667;51.922;8.850;2023-03-01T15:33:27;5.25;;;3.55;;
53391;SDS011;41667;51.922;8.850;2023-03-01T15:35:54;5.20;;;3.30;;
53391;SDS011;41667;51.922;8.850;2023-03-01T15:38:32;6.10;;;3.47;;
53391;SDS011;41667;51.922;8.850;2023-03-01T15:41:02;6.68;;;3.83;;
53391;SDS011;41667;51.922;8.850;2023-03-01T15:43:38;6.38;;;3.25;;
53391;SDS011;41667;51.922;8.850;2023-03-01T15:46:03;7.68;;;4.18;;
53391;SDS011;41667;51.922;8.850;2023-03-01T15:48:29;3.50;;;2.95;;
53391;SDS011;41667;51.922;8.850;2023-03-01T15:50:58;8.05;;;3.53;;
53391;SDS011;41667;51.922;8.850;2023-03-01T15:53:23;6.82;;;3.63;;
53391;SDS011;41667;51.922;8.850;2023-03-01T15:55:52;3.95;;;3.55;;
53391;SDS011;41667;51.922;8.850;2023-03-01T15:58:20;5.22;;;3.33;;
53391;SDS011;41667;51.922;8.850;2023-03-01T16:00:46;2.92;;;2.67;;
53391;SDS011;41667;51.922;8.850;2023-03-01T16:03:13;6.35;;;3.42;;